createdAt,value
2022-08-29T00:00:08.287Z,364
2022-08-29T00:01:07.020Z,367
2022-08-29T00:02:07.779Z,371
2022-08-29T00:03:08.810Z,373
2022-08-29T00:04:07.748Z,375
2022-08-29T00:05:07.498Z,355
2022-08-29T00:06:07.578Z,360
2022-08-29T00:08:07.204Z,371
2022-08-29T00:09:07.536Z,374
2022-08-29T00:10:07.805Z,373
2022-08-29T00:11:07.055Z,371
2022-08-29T00:12:07.979Z,376
2022-08-29T00:13:07.592Z,373
2022-08-29T00:14:07.749Z,372
2022-08-29T00:15:07.709Z,364
2022-08-29T00:16:07.284Z,360
2022-08-29T00:17:07.759Z,363
2022-08-29T00:18:07.665Z,368
2022-08-29T00:19:07.760Z,371
2022-08-29T00:20:07.637Z,357
2022-08-29T00:21:07.434Z,373
2022-08-29T00:22:07.582Z,376
2022-08-29T00:23:07.219Z,377
2022-08-29T00:24:07.363Z,372
2022-08-29T00:26:07.450Z,361
2022-08-29T00:27:07.469Z,370
2022-08-29T00:28:07.652Z,363
2022-08-29T00:29:06.948Z,351
2022-08-29T00:30:07.328Z,362
2022-08-29T00:31:06.997Z,376
2022-08-29T00:33:07.331Z,359
2022-08-29T00:34:07.474Z,365
2022-08-29T00:35:07.752Z,368
2022-08-29T00:36:07.076Z,369
2022-08-29T00:38:08.297Z,370
2022-08-29T00:39:09.234Z,371
2022-08-29T00:41:07.445Z,372
2022-08-29T00:42:07.598Z,366
2022-08-29T00:44:07.223Z,365
2022-08-29T00:45:07.449Z,371
2022-08-29T00:46:07.652Z,381
2022-08-29T00:47:07.301Z,384
2022-08-29T00:48:07.472Z,375
2022-08-29T00:49:07.613Z,371
2022-08-29T00:50:07.882Z,374
2022-08-29T00:51:07.325Z,371
2022-08-29T00:52:07.743Z,376
2022-08-29T00:53:08.073Z,371
2022-08-29T00:54:07.819Z,378
2022-08-29T00:56:07.789Z,373
2022-08-29T00:57:07.340Z,365
2022-08-29T00:58:07.830Z,370
2022-08-29T00:59:07.524Z,365
2022-08-29T01:00:08.311Z,361
2022-08-29T01:01:07.253Z,371
2022-08-29T01:02:07.545Z,368
2022-08-29T01:04:07.181Z,360
2022-08-29T01:05:06.923Z,358
2022-08-29T01:06:06.934Z,365
2022-08-29T01:07:06.998Z,362
2022-08-29T01:08:07.205Z,369
2022-08-29T01:09:07.533Z,375
2022-08-29T01:10:13.555Z,377
2022-08-29T01:11:07.728Z,376
2022-08-29T01:12:07.031Z,369
2022-08-29T01:13:07.433Z,366
2022-08-29T01:14:07.539Z,371
2022-08-29T01:15:07.960Z,378
2022-08-29T01:16:07.338Z,376
2022-08-29T01:17:07.569Z,368
2022-08-29T01:18:07.881Z,366
2022-08-29T01:19:07.388Z,358
2022-08-29T01:20:07.616Z,362
2022-08-29T01:21:07.265Z,355
2022-08-29T01:22:07.514Z,360
2022-08-29T01:23:07.830Z,364
2022-08-29T01:26:07.342Z,368
2022-08-29T01:27:07.663Z,378
2022-08-29T01:28:07.508Z,375
2022-08-29T01:29:07.258Z,363
2022-08-29T01:30:07.650Z,365
2022-08-29T01:32:07.794Z,358
2022-08-29T01:33:07.319Z,367
2022-08-29T01:34:07.506Z,369
2022-08-29T01:35:07.936Z,366
2022-08-29T01:36:07.434Z,371
2022-08-29T01:37:12.562Z,377
2022-08-29T01:38:06.882Z,369
2022-08-29T01:39:07.144Z,374
2022-08-29T01:40:07.283Z,375
2022-08-29T01:41:07.885Z,369
2022-08-29T01:42:06.836Z,379
2022-08-29T01:44:07.357Z,375
2022-08-29T01:45:09.727Z,374
2022-08-29T01:46:07.457Z,375
2022-08-29T01:47:07.483Z,378
2022-08-29T01:48:07.604Z,372
2022-08-29T01:49:07.596Z,380
2022-08-29T01:50:07.955Z,368
2022-08-29T01:51:07.250Z,364
2022-08-29T01:52:07.511Z,357
2022-08-29T01:53:07.686Z,374
2022-08-29T01:54:07.399Z,370
2022-08-29T01:55:07.493Z,362
2022-08-29T01:56:07.860Z,366
2022-08-29T01:57:10.946Z,375
2022-08-29T01:58:07.699Z,376
2022-08-29T01:59:07.111Z,370
2022-08-29T02:01:07.062Z,355
2022-08-29T02:02:07.477Z,361
2022-08-29T02:03:07.696Z,363
2022-08-29T02:04:07.060Z,366
2022-08-29T02:05:07.803Z,370
2022-08-29T02:06:07.449Z,338
2022-08-29T02:07:12.017Z,383
2022-08-29T02:08:07.344Z,377
2022-08-29T02:09:07.730Z,378
2022-08-29T02:10:07.769Z,359
2022-08-29T02:11:06.995Z,357
2022-08-29T02:12:07.879Z,365
2022-08-29T02:13:07.203Z,368
2022-08-29T02:14:07.224Z,369
2022-08-29T02:15:07.651Z,378
2022-08-29T02:16:07.076Z,369
2022-08-29T02:17:07.175Z,367
2022-08-29T02:18:07.705Z,362
2022-08-29T02:19:07.283Z,368
2022-08-29T02:20:07.608Z,363
2022-08-29T02:21:07.050Z,371
2022-08-29T02:22:07.157Z,374
2022-08-29T02:23:21.876Z,375
2022-08-29T02:24:23.917Z,368
2022-08-29T02:25:07.816Z,378
2022-08-29T02:26:07.026Z,370
2022-08-29T02:27:07.314Z,362
2022-08-29T02:28:07.111Z,361
2022-08-29T02:29:07.337Z,372
2022-08-29T02:30:07.946Z,375
2022-08-29T02:31:07.365Z,368
2022-08-29T02:32:08.014Z,367
2022-08-29T02:33:07.609Z,363
2022-08-29T02:34:07.464Z,362
2022-08-29T02:35:07.717Z,367
2022-08-29T02:36:07.484Z,366
2022-08-29T02:37:07.218Z,362
2022-08-29T02:38:07.331Z,366
2022-08-29T02:39:07.618Z,369
2022-08-29T02:40:07.831Z,367
2022-08-29T02:41:09.343Z,370
2022-08-29T02:42:07.079Z,379
2022-08-29T02:43:07.227Z,375
2022-08-29T02:44:07.276Z,381
2022-08-29T02:45:07.504Z,380
2022-08-29T02:46:07.418Z,383
2022-08-29T02:47:07.740Z,393
2022-08-29T02:48:07.056Z,395
2022-08-29T02:49:07.514Z,386
2022-08-29T02:50:07.437Z,373
2022-08-29T02:51:07.502Z,377
2022-08-29T02:52:07.673Z,388
2022-08-29T02:53:06.983Z,393
2022-08-29T02:54:07.101Z,390
2022-08-29T02:55:07.513Z,385
2022-08-29T02:56:07.723Z,384
2022-08-29T02:57:07.301Z,382
2022-08-29T02:59:07.687Z,373
2022-08-29T03:00:08.496Z,395
2022-08-29T03:01:07.535Z,377
2022-08-29T03:02:07.310Z,380
2022-08-29T03:03:07.689Z,382
2022-08-29T03:04:07.736Z,378
2022-08-29T03:05:07.800Z,375
2022-08-29T03:07:07.495Z,371
2022-08-29T03:08:07.687Z,376
2022-08-29T03:09:07.702Z,384
2022-08-29T03:10:07.073Z,390
2022-08-29T03:11:07.451Z,392
2022-08-29T03:12:07.562Z,383
2022-08-29T03:13:07.713Z,391
2022-08-29T03:14:07.120Z,393
2022-08-29T03:15:07.668Z,388
2022-08-29T03:16:07.480Z,385
2022-08-29T03:17:07.571Z,387
2022-08-29T03:18:06.994Z,378
2022-08-29T03:19:07.341Z,398
2022-08-29T03:20:07.540Z,371
2022-08-29T03:21:07.150Z,362
2022-08-29T03:22:07.578Z,366
2022-08-29T03:23:07.947Z,375
2022-08-29T03:24:07.621Z,374
2022-08-29T03:25:07.206Z,370
2022-08-29T03:26:07.617Z,377
2022-08-29T03:27:06.910Z,378
2022-08-29T03:28:07.287Z,385
2022-08-29T03:29:07.538Z,394
2022-08-29T03:31:07.781Z,381
2022-08-29T03:32:07.282Z,385
2022-08-29T03:33:11.518Z,391
2022-08-29T03:34:07.090Z,381
2022-08-29T03:35:07.373Z,382
2022-08-29T03:36:13.645Z,386
2022-08-29T03:38:07.677Z,375
2022-08-29T03:39:07.063Z,380
2022-08-29T03:40:07.396Z,375
2022-08-29T03:41:07.744Z,374
2022-08-29T03:42:06.928Z,373
2022-08-29T03:43:07.316Z,364
2022-08-29T03:44:07.569Z,367
2022-08-29T03:45:07.856Z,370
2022-08-29T03:46:07.198Z,376
2022-08-29T03:47:07.633Z,375
2022-08-29T03:48:07.855Z,387
2022-08-29T03:49:07.133Z,379
2022-08-29T03:50:07.475Z,376
2022-08-29T03:51:07.739Z,380
2022-08-29T03:52:07.070Z,373
2022-08-29T03:53:07.278Z,383
2022-08-29T03:54:07.462Z,380
2022-08-29T03:55:07.715Z,385
2022-08-29T03:56:07.168Z,399
2022-08-29T03:57:07.284Z,394
2022-08-29T03:58:07.866Z,387
2022-08-29T03:59:07.195Z,404
2022-08-29T04:00:08.143Z,397
2022-08-29T04:01:06.907Z,395
2022-08-29T04:02:07.647Z,396
2022-08-29T04:04:12.530Z,393
2022-08-29T04:05:08.289Z,402
2022-08-29T04:06:07.003Z,403
2022-08-29T04:07:07.300Z,406
2022-08-29T04:08:07.323Z,403
2022-08-29T04:09:07.361Z,395
2022-08-29T04:10:07.893Z,383
2022-08-29T04:11:07.556Z,392
2022-08-29T04:12:07.181Z,383
2022-08-29T04:13:07.504Z,409
2022-08-29T04:14:07.794Z,383
2022-08-29T04:15:07.326Z,387
2022-08-29T04:16:15.606Z,390
2022-08-29T04:17:07.207Z,387
2022-08-29T04:18:07.532Z,383
2022-08-29T04:19:08.957Z,386
2022-08-29T04:21:07.206Z,392
2022-08-29T04:22:07.441Z,394
2022-08-29T04:23:07.610Z,395
2022-08-29T04:24:07.160Z,392
2022-08-29T04:25:07.512Z,386
2022-08-29T04:26:27.088Z,381
2022-08-29T04:27:07.478Z,377
2022-08-29T04:28:07.929Z,382
2022-08-29T04:29:07.419Z,388
2022-08-29T04:30:08.068Z,379
2022-08-29T04:31:07.567Z,382
2022-08-29T04:32:07.381Z,397
2022-08-29T04:33:07.904Z,382
2022-08-29T04:34:07.493Z,391
2022-08-29T04:35:07.775Z,388
2022-08-29T04:36:09.201Z,382
2022-08-29T04:37:07.287Z,389
2022-08-29T04:38:07.848Z,394
2022-08-29T04:39:07.697Z,395
2022-08-29T04:40:08.450Z,396
2022-08-29T04:41:07.588Z,397
2022-08-29T04:42:07.706Z,395
2022-08-29T04:43:07.203Z,388
2022-08-29T04:44:07.914Z,389
2022-08-29T04:45:07.538Z,388
2022-08-29T04:46:07.583Z,383
2022-08-29T04:47:07.509Z,379
2022-08-29T04:48:07.227Z,386
2022-08-29T04:49:07.244Z,391
2022-08-29T04:50:07.762Z,408
2022-08-29T04:51:07.228Z,369
2022-08-29T04:52:07.601Z,376
2022-08-29T04:53:07.053Z,381
2022-08-29T04:54:07.541Z,398
2022-08-29T04:55:07.729Z,394
2022-08-29T04:56:06.752Z,386
2022-08-29T04:57:07.099Z,388
2022-08-29T04:58:07.248Z,379
2022-08-29T04:59:07.343Z,377
2022-08-29T05:00:08.405Z,384
2022-08-29T05:01:07.328Z,376
2022-08-29T05:02:07.004Z,379
2022-08-29T05:03:07.431Z,376
2022-08-29T05:04:08.526Z,372
2022-08-29T05:05:07.736Z,373
2022-08-29T05:06:07.274Z,372
2022-08-29T05:07:07.736Z,394
2022-08-29T05:08:07.163Z,374
2022-08-29T05:09:07.056Z,411
2022-08-29T05:10:07.578Z,372
2022-08-29T05:12:10.257Z,365
2022-08-29T05:13:07.499Z,371
2022-08-29T05:14:07.907Z,369
2022-08-29T05:15:07.742Z,377
2022-08-29T05:16:07.307Z,382
2022-08-29T05:17:07.875Z,379
2022-08-29T05:18:07.544Z,382
2022-08-29T05:19:08.442Z,378
2022-08-29T05:20:07.318Z,380
2022-08-29T05:21:07.863Z,373
2022-08-29T05:22:07.838Z,382
2022-08-29T05:23:07.561Z,374
2022-08-29T05:24:07.564Z,377
2022-08-29T05:25:07.637Z,375
2022-08-29T05:26:07.066Z,381
2022-08-29T05:27:07.479Z,371
2022-08-29T05:28:07.851Z,407
2022-08-29T05:29:08.569Z,389
2022-08-29T05:30:07.526Z,383
2022-08-29T05:31:09.783Z,381
2022-08-29T05:32:07.593Z,375
2022-08-29T05:33:07.761Z,378
2022-08-29T05:34:14.007Z,381
2022-08-29T05:35:07.346Z,380
2022-08-29T05:36:07.662Z,379
2022-08-29T05:37:06.919Z,388
2022-08-29T05:38:09.417Z,394
2022-08-29T05:39:07.178Z,377
2022-08-29T05:40:07.943Z,379
2022-08-29T05:41:07.482Z,382
2022-08-29T05:42:07.806Z,386
2022-08-29T05:44:07.646Z,377
2022-08-29T05:45:07.447Z,370
2022-08-29T05:46:07.743Z,358
2022-08-29T05:47:07.394Z,367
2022-08-29T05:48:07.383Z,377
2022-08-29T05:49:07.607Z,380
2022-08-29T05:50:07.919Z,383
2022-08-29T05:51:07.548Z,381
2022-08-29T05:52:07.656Z,379
2022-08-29T05:53:07.799Z,373
2022-08-29T05:54:07.341Z,386
2022-08-29T05:55:07.683Z,383
2022-08-29T05:56:07.204Z,374
2022-08-29T05:57:07.698Z,375
2022-08-29T05:58:07.724Z,383
2022-08-29T05:59:07.275Z,373
2022-08-29T06:00:08.090Z,364
2022-08-29T06:01:07.576Z,381
2022-08-29T06:02:07.166Z,369
2022-08-29T06:03:07.649Z,391
2022-08-29T06:04:07.553Z,389
2022-08-29T06:05:08.175Z,379
2022-08-29T06:06:07.428Z,382
2022-08-29T06:07:07.629Z,378
2022-08-29T06:08:07.676Z,380
2022-08-29T06:09:07.477Z,375
2022-08-29T06:10:07.348Z,376
2022-08-29T06:11:08.109Z,371
2022-08-29T06:12:07.949Z,368
2022-08-29T06:13:07.515Z,369
2022-08-29T06:15:07.936Z,372
2022-08-29T06:17:08.739Z,362
2022-08-29T06:18:07.674Z,370
2022-08-29T06:19:07.450Z,383
2022-08-29T06:20:07.717Z,380
2022-08-29T06:21:07.266Z,384
2022-08-29T06:22:10.041Z,372
2022-08-29T06:23:07.522Z,371
2022-08-29T06:24:07.833Z,369
2022-08-29T06:25:35.098Z,366
2022-08-29T06:26:07.807Z,368
2022-08-29T06:28:07.524Z,363
2022-08-29T06:29:06.880Z,367
2022-08-29T06:30:07.708Z,372
2022-08-29T06:31:07.420Z,369
2022-08-29T06:32:07.819Z,370
2022-08-29T06:33:07.609Z,356
2022-08-29T06:34:07.384Z,352
2022-08-29T06:35:07.747Z,351
2022-08-29T06:36:07.324Z,367
2022-08-29T06:37:07.622Z,368
2022-08-29T06:38:09.727Z,367
2022-08-29T06:39:07.423Z,377
2022-08-29T06:40:08.266Z,354
2022-08-29T06:41:07.992Z,365
2022-08-29T06:42:07.618Z,367
2022-08-29T06:43:07.299Z,359
2022-08-29T06:44:07.589Z,355
2022-08-29T06:45:15.426Z,346
2022-08-29T06:46:07.211Z,352
2022-08-29T06:47:07.802Z,351
2022-08-29T06:48:07.313Z,365
2022-08-29T06:49:07.758Z,369
2022-08-29T06:50:07.415Z,362
2022-08-29T06:51:07.771Z,351
2022-08-29T06:52:09.420Z,355
2022-08-29T06:53:27.021Z,359
2022-08-29T06:54:07.785Z,366
2022-08-29T06:55:07.388Z,356
2022-08-29T06:56:11.306Z,391
2022-08-29T06:57:07.261Z,354
2022-08-29T06:58:07.580Z,356
2022-08-29T06:59:07.066Z,353
2022-08-29T07:00:12.480Z,349
2022-08-29T07:01:07.464Z,356
2022-08-29T07:02:07.329Z,353
2022-08-29T07:03:26.714Z,351
2022-08-29T07:04:07.068Z,359
2022-08-29T07:05:07.213Z,364
2022-08-29T07:06:07.489Z,353
2022-08-29T07:07:07.144Z,359
2022-08-29T07:08:07.810Z,358
2022-08-29T07:09:07.838Z,347
2022-08-29T07:10:07.473Z,345
2022-08-29T07:11:07.808Z,350
2022-08-29T07:12:07.323Z,340
2022-08-29T07:13:07.463Z,360
2022-08-29T07:14:07.950Z,343
2022-08-29T07:15:07.995Z,345
2022-08-29T07:16:07.780Z,352
2022-08-29T07:17:07.393Z,358
2022-08-29T07:18:07.312Z,355
2022-08-29T07:19:07.098Z,354
2022-08-29T07:20:09.953Z,348
2022-08-29T07:21:07.466Z,357
2022-08-29T07:22:07.292Z,363
2022-08-29T07:23:13.834Z,354
2022-08-29T07:24:07.752Z,352
2022-08-29T07:25:07.680Z,359
2022-08-29T07:26:07.547Z,367
2022-08-29T07:27:07.251Z,361
2022-08-29T07:28:07.881Z,371
2022-08-29T07:29:07.383Z,365
2022-08-29T07:30:07.437Z,370
2022-08-29T07:31:07.509Z,344
2022-08-29T07:32:07.454Z,342
2022-08-29T07:34:07.807Z,347
2022-08-29T07:35:11.518Z,348
2022-08-29T07:36:07.443Z,359
2022-08-29T07:37:07.850Z,360
2022-08-29T07:38:07.282Z,350
2022-08-29T07:39:07.744Z,351
2022-08-29T07:40:07.395Z,356
2022-08-29T07:41:07.691Z,357
2022-08-29T07:42:07.556Z,344
2022-08-29T07:43:07.743Z,352
2022-08-29T07:44:07.933Z,360
2022-08-29T07:45:08.541Z,365
2022-08-29T07:46:07.697Z,361
2022-08-29T07:47:07.736Z,346
2022-08-29T07:48:09.172Z,381
2022-08-29T07:49:07.313Z,363
2022-08-29T07:50:07.752Z,350
2022-08-29T07:51:10.445Z,363
2022-08-29T07:52:07.095Z,369
2022-08-29T07:53:07.746Z,359
2022-08-29T07:54:08.032Z,362
2022-08-29T07:55:07.646Z,361
2022-08-29T07:56:07.282Z,357
2022-08-29T07:57:07.826Z,363
2022-08-29T07:58:07.669Z,368
2022-08-29T07:59:07.369Z,357
2022-08-29T08:00:08.042Z,366
2022-08-29T08:01:07.218Z,380
2022-08-29T08:02:07.774Z,369
2022-08-29T08:03:07.691Z,363
2022-08-29T08:04:07.520Z,375
2022-08-29T08:05:07.822Z,364
2022-08-29T08:06:07.882Z,371
2022-08-29T08:07:13.555Z,362
2022-08-29T08:08:08.929Z,356
2022-08-29T08:09:07.479Z,353
2022-08-29T08:10:07.343Z,354
2022-08-29T08:11:07.702Z,352
2022-08-29T08:12:08.381Z,349
2022-08-29T08:13:07.355Z,347
2022-08-29T08:14:07.797Z,355
2022-08-29T08:15:07.580Z,365
2022-08-29T08:16:06.839Z,362
2022-08-29T08:17:07.433Z,367
2022-08-29T08:18:07.859Z,345
2022-08-29T08:19:07.671Z,334
2022-08-29T08:20:07.464Z,345
2022-08-29T08:21:07.525Z,354
2022-08-29T08:22:07.561Z,365
2022-08-29T08:23:09.043Z,364
2022-08-29T08:24:08.008Z,362
2022-08-29T08:25:07.552Z,359
2022-08-29T08:26:07.379Z,364
2022-08-29T08:27:08.007Z,372
2022-08-29T08:28:07.590Z,369
2022-08-29T08:29:07.243Z,361
2022-08-29T08:30:08.128Z,358
2022-08-29T08:31:07.631Z,353
2022-08-29T08:32:07.379Z,348
2022-08-29T08:33:08.022Z,347
2022-08-29T08:34:07.525Z,359
2022-08-29T08:35:07.685Z,368
2022-08-29T08:36:07.232Z,358
2022-08-29T08:37:07.555Z,354
2022-08-29T08:38:07.856Z,353
2022-08-29T08:39:07.714Z,364
2022-08-29T08:40:07.589Z,366
2022-08-29T08:41:07.592Z,352
2022-08-29T08:42:07.307Z,349
2022-08-29T08:43:08.063Z,354
2022-08-29T08:44:07.782Z,353
2022-08-29T08:45:07.477Z,341
2022-08-29T08:46:07.399Z,349
2022-08-29T08:47:07.250Z,361
2022-08-29T08:49:07.443Z,365
2022-08-29T08:50:08.084Z,355
2022-08-29T08:51:07.417Z,346
2022-08-29T08:52:12.170Z,377
2022-08-29T08:53:07.569Z,356
2022-08-29T08:54:07.203Z,357
2022-08-29T08:55:07.465Z,364
2022-08-29T08:56:06.921Z,363
2022-08-29T08:57:07.411Z,361
2022-08-29T08:58:07.839Z,356
2022-08-29T08:59:07.453Z,349
2022-08-29T09:00:08.589Z,345
2022-08-29T09:01:07.652Z,348
2022-08-29T09:02:07.725Z,352
2022-08-29T09:03:07.450Z,367
2022-08-29T09:04:07.193Z,358
2022-08-29T09:05:07.749Z,352
2022-08-29T09:06:07.403Z,367
2022-08-29T09:07:07.792Z,346
2022-08-29T09:08:07.687Z,351
2022-08-29T09:09:08.131Z,359
2022-08-29T09:10:07.788Z,355
2022-08-29T09:11:07.472Z,353
2022-08-29T09:13:07.548Z,355
2022-08-29T09:14:07.417Z,357
2022-08-29T09:15:07.449Z,361
2022-08-29T09:16:07.322Z,367
2022-08-29T09:17:07.914Z,373
2022-08-29T09:18:07.294Z,365
2022-08-29T09:19:07.606Z,372
2022-08-29T09:20:07.200Z,367
2022-08-29T09:21:30.046Z,365
2022-08-29T09:22:07.808Z,363
2022-08-29T09:23:07.441Z,347
2022-08-29T09:24:07.257Z,355
2022-08-29T09:25:07.760Z,359
2022-08-29T09:26:07.372Z,360
2022-08-29T09:27:07.392Z,362
2022-08-29T09:28:07.811Z,356
2022-08-29T09:29:07.589Z,348
2022-08-29T09:30:07.474Z,360
2022-08-29T09:31:07.143Z,358
2022-08-29T09:32:07.689Z,361
2022-08-29T09:33:07.451Z,362
2022-08-29T09:34:06.944Z,360
2022-08-29T09:35:09.345Z,358
2022-08-29T09:36:07.544Z,353
2022-08-29T09:37:07.445Z,358
2022-08-29T09:38:07.086Z,372
2022-08-29T09:39:07.582Z,361
2022-08-29T09:40:07.151Z,363
2022-08-29T09:41:07.621Z,369
2022-08-29T09:42:07.095Z,370
2022-08-29T09:43:07.540Z,368
2022-08-29T09:44:07.342Z,373
2022-08-29T09:45:07.771Z,364
2022-08-29T09:46:07.319Z,363
2022-08-29T09:47:07.026Z,368
2022-08-29T09:48:07.732Z,365
2022-08-29T09:49:07.366Z,377
2022-08-29T09:50:07.888Z,373
2022-08-29T09:51:07.823Z,362
2022-08-29T09:53:10.062Z,365
2022-08-29T09:54:07.360Z,383
2022-08-29T09:55:07.693Z,366
2022-08-29T09:56:07.368Z,372
2022-08-29T09:57:07.749Z,374
2022-08-29T09:58:07.622Z,367
2022-08-29T09:59:07.535Z,371
2022-08-29T10:00:08.376Z,374
2022-08-29T10:01:07.801Z,367
2022-08-29T10:02:07.403Z,371
2022-08-29T10:03:07.991Z,357
2022-08-29T10:04:07.555Z,364
2022-08-29T10:05:13.186Z,362
2022-08-29T10:06:07.004Z,355
2022-08-29T10:07:07.402Z,345
2022-08-29T10:08:07.467Z,351
2022-08-29T10:09:07.109Z,358
2022-08-29T10:10:07.710Z,375
2022-08-29T10:11:07.513Z,372
2022-08-29T10:12:07.980Z,363
2022-08-29T10:13:07.628Z,369
2022-08-29T10:14:07.013Z,366
2022-08-29T10:15:07.596Z,361
2022-08-29T10:16:07.814Z,357
2022-08-29T10:17:07.658Z,345
2022-08-29T10:18:07.738Z,355
2022-08-29T10:19:07.381Z,361
2022-08-29T10:20:07.994Z,366
2022-08-29T10:21:07.643Z,335
2022-08-29T10:22:07.324Z,347
2022-08-29T10:23:07.705Z,350
2022-08-29T10:24:07.351Z,361
2022-08-29T10:26:07.796Z,365
2022-08-29T10:28:07.926Z,354
2022-08-29T10:29:07.434Z,356
2022-08-29T10:31:07.427Z,362
2022-08-29T10:32:07.705Z,360
2022-08-29T10:33:07.358Z,354
2022-08-29T10:34:07.290Z,352
2022-08-29T10:35:07.561Z,354
2022-08-29T10:36:07.685Z,353
2022-08-29T10:37:07.201Z,355
2022-08-29T10:38:07.631Z,360
2022-08-29T10:39:07.394Z,348
2022-08-29T10:40:08.205Z,346
2022-08-29T10:41:08.036Z,352
2022-08-29T10:42:07.899Z,349
2022-08-29T10:43:07.785Z,348
2022-08-29T10:44:07.870Z,354
2022-08-29T10:45:07.762Z,356
2022-08-29T10:46:07.505Z,349
2022-08-29T10:47:07.330Z,337
2022-08-29T10:48:07.662Z,336
2022-08-29T10:49:07.275Z,340
2022-08-29T10:50:12.892Z,341
2022-08-29T10:51:07.586Z,323
2022-08-29T10:52:07.040Z,336
2022-08-29T10:53:07.701Z,346
2022-08-29T10:54:07.175Z,352
2022-08-29T10:55:07.679Z,356
2022-08-29T10:56:07.405Z,366
2022-08-29T10:57:07.821Z,362
2022-08-29T10:58:12.463Z,354
2022-08-29T10:59:07.806Z,352
2022-08-29T11:00:08.392Z,365
2022-08-29T11:01:09.434Z,352
2022-08-29T11:02:07.373Z,334
2022-08-29T11:03:07.861Z,335
2022-08-29T11:04:07.757Z,334
2022-08-29T11:05:07.563Z,323
2022-08-29T11:06:07.022Z,337
2022-08-29T11:07:07.530Z,352
2022-08-29T11:08:07.199Z,355
2022-08-29T11:09:07.087Z,351
2022-08-29T11:10:07.717Z,346
2022-08-29T11:11:07.194Z,350
2022-08-29T11:12:07.735Z,339
2022-08-29T11:13:07.722Z,334
2022-08-29T11:14:07.369Z,348
2022-08-29T11:15:07.973Z,349
2022-08-29T11:16:07.473Z,354
2022-08-29T11:17:07.294Z,325
2022-08-29T11:18:07.606Z,361
2022-08-29T11:19:07.364Z,339
2022-08-29T11:20:07.031Z,330
2022-08-29T11:21:08.076Z,335
2022-08-29T11:22:07.687Z,344
2022-08-29T11:23:07.500Z,349
2022-08-29T11:24:07.053Z,347
2022-08-29T11:25:07.729Z,343
2022-08-29T11:26:07.652Z,349
2022-08-29T11:27:07.347Z,354
2022-08-29T11:28:07.831Z,345
2022-08-29T11:29:07.773Z,343
2022-08-29T11:30:07.647Z,359
2022-08-29T11:31:15.425Z,358
2022-08-29T11:32:07.418Z,337
2022-08-29T11:33:15.808Z,341
2022-08-29T11:34:07.645Z,331
2022-08-29T11:35:07.496Z,334
2022-08-29T11:36:07.526Z,336
2022-08-29T11:37:07.200Z,340
2022-08-29T11:38:07.569Z,343
2022-08-29T11:39:07.026Z,326
2022-08-29T11:40:07.794Z,331
2022-08-29T11:41:29.166Z,328
2022-08-29T11:42:07.770Z,320
2022-08-29T11:43:12.254Z,330
2022-08-29T11:44:07.461Z,343
2022-08-29T11:45:07.844Z,366
2022-08-29T11:46:07.113Z,335
2022-08-29T11:47:07.671Z,337
2022-08-29T11:48:07.566Z,346
2022-08-29T11:49:07.142Z,342
2022-08-29T11:50:07.932Z,346
2022-08-29T11:51:07.533Z,349
2022-08-29T11:52:07.483Z,339
2022-08-29T11:53:07.003Z,341
2022-08-29T11:54:07.704Z,343
2022-08-29T11:55:07.322Z,340
2022-08-29T11:56:07.941Z,324
2022-08-29T11:57:07.794Z,316
2022-08-29T11:58:11.351Z,344
2022-08-29T11:59:07.319Z,317
2022-08-29T12:00:08.581Z,322
2022-08-29T12:01:07.733Z,342
2022-08-29T12:02:07.269Z,351
2022-08-29T12:03:14.970Z,357
2022-08-29T12:04:07.365Z,352
2022-08-29T12:05:07.670Z,348
2022-08-29T12:06:07.448Z,342
2022-08-29T12:07:07.283Z,335
2022-08-29T12:09:10.097Z,344
2022-08-29T12:10:07.961Z,333
2022-08-29T12:11:07.510Z,332
2022-08-29T12:12:07.296Z,333
2022-08-29T12:14:07.604Z,332
2022-08-29T12:15:07.465Z,328
2022-08-29T12:16:08.805Z,333
2022-08-29T12:17:07.597Z,346
2022-08-29T12:18:07.364Z,345
2022-08-29T12:19:07.773Z,355
2022-08-29T12:20:07.362Z,344
2022-08-29T12:21:07.682Z,336
2022-08-29T12:22:07.205Z,338
2022-08-29T12:23:07.448Z,355
2022-08-29T12:24:07.532Z,334
2022-08-29T12:25:08.038Z,344
2022-08-29T12:26:22.052Z,362
2022-08-29T12:27:07.645Z,350
2022-08-29T12:28:07.420Z,349
2022-08-29T12:29:10.207Z,341
2022-08-29T12:30:07.617Z,342
2022-08-29T12:31:07.637Z,348
2022-08-29T12:32:22.802Z,342
2022-08-29T12:33:07.810Z,338
2022-08-29T12:34:07.920Z,342
2022-08-29T12:35:07.831Z,334
2022-08-29T12:38:07.865Z,352
2022-08-29T12:39:07.410Z,347
2022-08-29T12:40:07.309Z,336
2022-08-29T12:41:07.294Z,337
2022-08-29T12:42:07.570Z,340
2022-08-29T12:43:07.183Z,343
2022-08-29T12:44:07.201Z,355
2022-08-29T12:45:07.840Z,357
2022-08-29T12:46:07.724Z,356
2022-08-29T12:47:07.756Z,348
2022-08-29T12:48:07.646Z,345
2022-08-29T12:49:07.348Z,340
2022-08-29T12:50:08.068Z,351
2022-08-29T12:52:07.725Z,371
2022-08-29T12:53:07.636Z,324
2022-08-29T12:54:07.277Z,333
2022-08-29T12:55:07.924Z,332
2022-08-29T12:56:07.523Z,333
2022-08-29T12:57:07.298Z,325
2022-08-29T12:58:07.882Z,322
2022-08-29T12:59:07.318Z,328
2022-08-29T13:00:07.814Z,339
2022-08-29T13:02:07.808Z,331
2022-08-29T13:03:14.794Z,338
2022-08-29T13:04:07.268Z,339
2022-08-29T13:05:07.963Z,336
2022-08-29T13:06:07.503Z,330
2022-08-29T13:07:07.462Z,338
2022-08-29T13:08:09.600Z,327
2022-08-29T13:09:07.578Z,339
2022-08-29T13:10:07.991Z,346
2022-08-29T13:11:07.458Z,344
2022-08-29T13:12:07.988Z,348
2022-08-29T13:13:07.879Z,346
2022-08-29T13:14:07.241Z,348
2022-08-29T13:15:07.591Z,350
2022-08-29T13:16:07.295Z,341
2022-08-29T13:17:07.352Z,345
2022-08-29T13:18:07.312Z,351
2022-08-29T13:19:11.384Z,338
2022-08-29T13:20:07.736Z,350
2022-08-29T13:21:07.593Z,345
2022-08-29T13:22:07.506Z,340
2022-08-29T13:23:07.485Z,329
2022-08-29T13:24:07.128Z,334
2022-08-29T13:25:07.840Z,337
2022-08-29T13:26:07.631Z,335
2022-08-29T13:27:07.331Z,345
2022-08-29T13:28:07.942Z,341
2022-08-29T13:29:07.932Z,345
2022-08-29T13:30:07.847Z,351
2022-08-29T13:31:08.015Z,344
2022-08-29T13:32:07.635Z,334
2022-08-29T13:33:07.431Z,338
2022-08-29T13:34:08.041Z,351
2022-08-29T13:35:07.940Z,352
2022-08-29T13:36:07.855Z,350
2022-08-29T13:37:10.616Z,349
2022-08-29T13:38:08.013Z,341
2022-08-29T13:39:07.865Z,344
2022-08-29T13:40:08.116Z,366
2022-08-29T13:41:08.114Z,371
2022-08-29T13:42:07.925Z,353
2022-08-29T13:43:08.574Z,344
2022-08-29T13:44:07.789Z,355
2022-08-29T13:45:07.988Z,317
2022-08-29T13:46:11.784Z,331
2022-08-29T13:47:07.627Z,342
2022-08-29T13:48:07.844Z,349
2022-08-29T13:49:07.825Z,362
2022-08-29T13:50:07.958Z,369
2022-08-29T13:51:08.081Z,374
2022-08-29T13:52:07.540Z,365
2022-08-29T13:53:07.422Z,362
2022-08-29T13:55:07.967Z,359
2022-08-29T13:56:08.034Z,358
2022-08-29T13:57:08.117Z,345
2022-08-29T13:58:08.045Z,341
2022-08-29T13:59:07.639Z,335
2022-08-29T14:01:30.063Z,343
2022-08-29T14:02:09.357Z,334
2022-08-29T14:04:34.538Z,350
2022-08-29T14:05:08.027Z,353
2022-08-29T14:06:07.924Z,347
2022-08-29T14:07:07.447Z,342
2022-08-29T14:08:07.293Z,345
2022-08-29T14:09:07.764Z,355
2022-08-29T14:10:07.741Z,343
2022-08-29T14:11:11.361Z,350
2022-08-29T14:12:07.097Z,355
2022-08-29T14:13:07.703Z,345
2022-08-29T14:14:07.231Z,343
2022-08-29T14:15:09.750Z,344
2022-08-29T14:16:07.719Z,335
2022-08-29T14:17:07.572Z,339
2022-08-29T14:18:07.473Z,337
2022-08-29T14:19:07.254Z,334
2022-08-29T14:21:07.641Z,329
2022-08-29T14:22:08.415Z,354
2022-08-29T14:23:08.004Z,343
2022-08-29T14:24:07.537Z,361
2022-08-29T14:25:07.999Z,364
2022-08-29T14:26:07.710Z,363
2022-08-29T14:27:07.526Z,371